sensor_id;sensor_type;location;lat;lon;timestamp;P1;durP1;ratioP1;P2;durP2;ratioP2
26690;SDS011;14307;51.718;8.938;2022-12-18T00:01:15;48.85;;;31.33;;
26690;SDS011;14307;51.718;8.938;2022-12-18T00:03:42;44.80;;;29.08;;
26690;SDS011;14307;51.718;8.938;2022-12-18T00:06:09;55.95;;;31.90;;
26690;SDS011;14307;51.718;8.938;2022-12-18T00:08:37;43.50;;;28.95;;
26690;SDS011;14307;51.718;8.938;2022-12-18T00:11:05;40.72;;;27.33;;
26690;SDS011;14307;51.718;8.938;2022-12-18T00:13:33;40.17;;;27.63;;
26690;SDS011;14307;51.718;8.938;2022-12-18T00:16:03;39.97;;;27.55;;
26690;SDS011;14307;51.718;8.938;2022-12-18T00:18:33;47.13;;;28.73;;
26690;SDS011;14307;51.718;8.938;2022-12-18T00:21:00;43.65;;;28.50;;
26690;SDS011;14307;51.718;8.938;2022-12-18T00:23:29;45.33;;;28.90;;
26690;SDS011;14307;51.718;8.938;2022-12-18T00:26:03;39.15;;;28.65;;
26690;SDS011;14307;51.718;8.938;2022-12-18T00:28:31;40.72;;;27.63;;
26690;SDS011;14307;51.718;8.938;2022-12-18T00:30:59;40.90;;;27.00;;
26690;SDS011;14307;51.718;8.938;2022-12-18T00:33:32;38.63;;;26.45;;
26690;SDS011;14307;51.718;8.938;2022-12-18T00:36:06;42.13;;;26.45;;
26690;SDS011;14307;51.718;8.938;2022-12-18T00:38:38;37.55;;;26.80;;
26690;SDS011;14307;51.718;8.938;2022-12-18T00:41:06;37.25;;;26.83;;
26690;SDS011;14307;51.718;8.938;2022-12-18T00:43:34;34.13;;;26.15;;
26690;SDS011;14307;51.718;8.938;2022-12-18T00:46:02;38.40;;;24.95;;
26690;SDS011;14307;51.718;8.938;2022-12-18T00:48:30;35.67;;;25.02;;
26690;SDS011;14307;51.718;8.938;2022-12-18T00:50:58;36.13;;;23.27;;
26690;SDS011;14307;51.718;8.938;2022-12-18T00:53:24;32.00;;;21.90;;
26690;SDS011;14307;51.718;8.938;2022-12-18T00:55:51;36.50;;;23.70;;
26690;SDS011;14307;51.718;8.938;2022-12-18T00:58:18;36.10;;;23.98;;
26690;SDS011;14307;51.718;8.938;2022-12-18T01:00:44;33.83;;;22.63;;
26690;SDS011;14307;51.718;8.938;2022-12-18T01:03:14;32.10;;;22.95;;
26690;SDS011;14307;51.718;8.938;2022-12-18T01:05:42;34.90;;;24.83;;
26690;SDS011;14307;51.718;8.938;2022-12-18T01:08:10;33.33;;;23.88;;
26690;SDS011;14307;51.718;8.938;2022-12-18T01:10:39;33.42;;;23.92;;
26690;SDS011;14307;51.718;8.938;2022-12-18T01:13:07;31.70;;;23.70;;
26690;SDS011;14307;51.718;8.938;2022-12-18T01:15:34;34.20;;;24.60;;
26690;SDS011;14307;51.718;8.938;2022-12-18T01:18:01;30.00;;;23.65;;
26690;SDS011;14307;51.718;8.938;2022-12-18T01:20:28;34.63;;;22.80;;
26690;SDS011;14307;51.718;8.938;2022-12-18T01:22:54;33.45;;;24.70;;
26690;SDS011;14307;51.718;8.938;2022-12-18T01:25:21;33.03;;;24.67;;
26690;SDS011;14307;51.718;8.938;2022-12-18T01:27:49;32.47;;;23.52;;
26690;SDS011;14307;51.718;8.938;2022-12-18T01:30:16;34.05;;;24.77;;
26690;SDS011;14307;51.718;8.938;2022-12-18T01:32:44;35.58;;;24.95;;
26690;SDS011;14307;51.718;8.938;2022-12-18T01:35:10;29.75;;;24.13;;
26690;SDS011;14307;51.718;8.938;2022-12-18T01:37:37;32.25;;;23.58;;
26690;SDS011;14307;51.718;8.938;2022-12-18T01:40:04;32.83;;;22.88;;
26690;SDS011;14307;51.718;8.938;2022-12-18T01:42:32;34.28;;;24.25;;
26690;SDS011;14307;51.718;8.938;2022-12-18T01:47:48;34.72;;;24.63;;
26690;SDS011;14307;51.718;8.938;2022-12-18T01:50:19;35.22;;;22.10;;
26690;SDS011;14307;51.718;8.938;2022-12-18T01:55:22;29.27;;;23.08;;
26690;SDS011;14307;51.718;8.938;2022-12-18T01:57:52;28.08;;;22.73;;
26690;SDS011;14307;51.718;8.938;2022-12-18T02:00:21;29.83;;;22.92;;
26690;SDS011;14307;51.718;8.938;2022-12-18T02:02:50;35.58;;;24.42;;
26690;SDS011;14307;51.718;8.938;2022-12-18T02:05:19;30.70;;;24.77;;
26690;SDS011;14307;51.718;8.938;2022-12-18T02:11:13;34.30;;;24.88;;
26690;SDS011;14307;51.718;8.938;2022-12-18T02:13:38;37.38;;;24.85;;
26690;SDS011;14307;51.718;8.938;2022-12-18T02:16:51;32.70;;;25.10;;
26690;SDS011;14307;51.718;8.938;2022-12-18T02:19:34;36.72;;;23.60;;
26690;SDS011;14307;51.718;8.938;2022-12-18T02:27:55;35.05;;;26.02;;
26690;SDS011;14307;51.718;8.938;2022-12-18T02:30:29;40.00;;;27.65;;
26690;SDS011;14307;51.718;8.938;2022-12-18T02:32:59;36.75;;;24.65;;
26690;SDS011;14307;51.718;8.938;2022-12-18T02:35:31;36.03;;;24.73;;
26690;SDS011;14307;51.718;8.938;2022-12-18T02:38:01;37.58;;;25.40;;
26690;SDS011;14307;51.718;8.938;2022-12-18T02:40:32;40.38;;;26.98;;
26690;SDS011;14307;51.718;8.938;2022-12-18T02:43:07;42.90;;;27.23;;
26690;SDS011;14307;51.718;8.938;2022-12-18T02:45:37;38.35;;;27.50;;
26690;SDS011;14307;51.718;8.938;2022-12-18T02:48:14;39.15;;;25.45;;
26690;SDS011;14307;51.718;8.938;2022-12-18T02:50:51;33.50;;;25.95;;
26690;SDS011;14307;51.718;8.938;2022-12-18T02:53:28;44.47;;;26.52;;
26690;SDS011;14307;51.718;8.938;2022-12-18T02:56:12;36.92;;;24.17;;
26690;SDS011;14307;51.718;8.938;2022-12-18T03:01:39;36.97;;;23.38;;
26690;SDS011;14307;51.718;8.938;2022-12-18T03:04:25;28.88;;;21.13;;
26690;SDS011;14307;51.718;8.938;2022-12-18T03:06:57;35.58;;;22.92;;
26690;SDS011;14307;51.718;8.938;2022-12-18T03:09:38;28.10;;;18.85;;
26690;SDS011;14307;51.718;8.938;2022-12-18T03:12:20;35.45;;;22.40;;
26690;SDS011;14307;51.718;8.938;2022-12-18T03:15:04;44.20;;;23.00;;
26690;SDS011;14307;51.718;8.938;2022-12-18T03:17:55;33.05;;;21.25;;
26690;SDS011;14307;51.718;8.938;2022-12-18T03:20:35;36.03;;;23.20;;
26690;SDS011;14307;51.718;8.938;2022-12-18T03:23:07;32.88;;;22.77;;
26690;SDS011;14307;51.718;8.938;2022-12-18T03:25:40;40.72;;;24.27;;
26690;SDS011;14307;51.718;8.938;2022-12-18T03:28:11;35.97;;;24.75;;
26690;SDS011;14307;51.718;8.938;2022-12-18T03:30:44;39.90;;;24.33;;
26690;SDS011;14307;51.718;8.938;2022-12-18T03:33:23;41.72;;;26.65;;
26690;SDS011;14307;51.718;8.938;2022-12-18T03:35:56;39.13;;;25.63;;
26690;SDS011;14307;51.718;8.938;2022-12-18T03:38:23;36.08;;;25.38;;
26690;SDS011;14307;51.718;8.938;2022-12-18T03:46:13;44.72;;;24.83;;
26690;SDS011;14307;51.718;8.938;2022-12-18T03:48:43;40.53;;;26.20;;
26690;SDS011;14307;51.718;8.938;2022-12-18T03:51:18;41.13;;;24.27;;
26690;SDS011;14307;51.718;8.938;2022-12-18T03:53:58;33.80;;;25.42;;
26690;SDS011;14307;51.718;8.938;2022-12-18T03:56:37;41.78;;;25.48;;
26690;SDS011;14307;51.718;8.938;2022-12-18T03:59:08;34.83;;;23.77;;
26690;SDS011;14307;51.718;8.938;2022-12-18T04:01:39;40.90;;;26.13;;
26690;SDS011;14307;51.718;8.938;2022-12-18T04:04:11;43.63;;;25.85;;
26690;SDS011;14307;51.718;8.938;2022-12-18T04:06:41;40.72;;;24.80;;
26690;SDS011;14307;51.718;8.938;2022-12-18T04:09:11;39.03;;;25.40;;
26690;SDS011;14307;51.718;8.938;2022-12-18T04:11:43;40.08;;;25.20;;
26690;SDS011;14307;51.718;8.938;2022-12-18T04:14:14;36.42;;;24.05;;
26690;SDS011;14307;51.718;8.938;2022-12-18T04:16:43;36.03;;;23.95;;
26690;SDS011;14307;51.718;8.938;2022-12-18T04:19:13;37.58;;;23.35;;
26690;SDS011;14307;51.718;8.938;2022-12-18T04:21:42;39.25;;;24.77;;
26690;SDS011;14307;51.718;8.938;2022-12-18T04:24:11;36.97;;;22.50;;
26690;SDS011;14307;51.718;8.938;2022-12-18T04:26:44;37.40;;;23.98;;
26690;SDS011;14307;51.718;8.938;2022-12-18T04:29:15;40.08;;;24.48;;
26690;SDS011;14307;51.718;8.938;2022-12-18T04:31:42;35.78;;;23.30;;
26690;SDS011;14307;51.718;8.938;2022-12-18T04:34:10;43.97;;;23.83;;
26690;SDS011;14307;51.718;8.938;2022-12-18T04:36:42;37.40;;;23.92;;
26690;SDS011;14307;51.718;8.938;2022-12-18T04:39:09;42.80;;;24.45;;
26690;SDS011;14307;51.718;8.938;2022-12-18T04:41:36;32.80;;;21.95;;
26690;SDS011;14307;51.718;8.938;2022-12-18T04:44:03;37.78;;;22.83;;
26690;SDS011;14307;51.718;8.938;2022-12-18T04:46:30;36.45;;;22.88;;
26690;SDS011;14307;51.718;8.938;2022-12-18T04:48:57;25.23;;;19.80;;
26690;SDS011;14307;51.718;8.938;2022-12-18T04:51:23;26.05;;;20.20;;
26690;SDS011;14307;51.718;8.938;2022-12-18T04:53:52;34.60;;;22.88;;
26690;SDS011;14307;51.718;8.938;2022-12-18T04:56:19;33.92;;;22.58;;
26690;SDS011;14307;51.718;8.938;2022-12-18T04:58:46;30.55;;;19.63;;
26690;SDS011;14307;51.718;8.938;2022-12-18T05:01:14;27.83;;;19.20;;
26690;SDS011;14307;51.718;8.938;2022-12-18T05:03:42;30.52;;;21.40;;
26690;SDS011;14307;51.718;8.938;2022-12-18T05:06:10;30.98;;;23.13;;
26690;SDS011;14307;51.718;8.938;2022-12-18T05:08:37;35.03;;;24.17;;
26690;SDS011;14307;51.718;8.938;2022-12-18T05:11:04;26.42;;;20.92;;
26690;SDS011;14307;51.718;8.938;2022-12-18T05:13:33;23.42;;;20.27;;
26690;SDS011;14307;51.718;8.938;2022-12-18T05:16:01;30.35;;;21.73;;
26690;SDS011;14307;51.718;8.938;2022-12-18T05:18:29;41.08;;;24.00;;
26690;SDS011;14307;51.718;8.938;2022-12-18T05:20:55;30.98;;;24.17;;
26690;SDS011;14307;51.718;8.938;2022-12-18T05:23:23;34.80;;;23.90;;
26690;SDS011;14307;51.718;8.938;2022-12-18T05:25:51;31.48;;;23.52;;
26690;SDS011;14307;51.718;8.938;2022-12-18T05:28:18;35.33;;;25.08;;
26690;SDS011;14307;51.718;8.938;2022-12-18T05:30:50;27.50;;;22.77;;
26690;SDS011;14307;51.718;8.938;2022-12-18T05:33:18;35.05;;;25.63;;
26690;SDS011;14307;51.718;8.938;2022-12-18T05:35:53;35.95;;;26.55;;
26690;SDS011;14307;51.718;8.938;2022-12-18T05:38:22;33.47;;;23.92;;
26690;SDS011;14307;51.718;8.938;2022-12-18T05:40:50;38.22;;;25.23;;
26690;SDS011;14307;51.718;8.938;2022-12-18T05:43:18;35.22;;;25.20;;
26690;SDS011;14307;51.718;8.938;2022-12-18T05:45:48;34.58;;;24.77;;
26690;SDS011;14307;51.718;8.938;2022-12-18T05:48:15;31.23;;;23.88;;
26690;SDS011;14307;51.718;8.938;2022-12-18T05:50:43;35.35;;;24.83;;
26690;SDS011;14307;51.718;8.938;2022-12-18T05:53:14;32.20;;;25.30;;
26690;SDS011;14307;51.718;8.938;2022-12-18T05:55:43;35.40;;;25.13;;
26690;SDS011;14307;51.718;8.938;2022-12-18T05:58:11;33.00;;;24.35;;
26690;SDS011;14307;51.718;8.938;2022-12-18T06:00:39;39.25;;;25.63;;
26690;SDS011;14307;51.718;8.938;2022-12-18T06:03:07;37.95;;;25.50;;
26690;SDS011;14307;51.718;8.938;2022-12-18T06:05:35;32.47;;;25.98;;
26690;SDS011;14307;51.718;8.938;2022-12-18T06:08:07;29.45;;;24.38;;
26690;SDS011;14307;51.718;8.938;2022-12-18T06:10:34;35.92;;;25.02;;
26690;SDS011;14307;51.718;8.938;2022-12-18T06:13:00;29.08;;;24.35;;
26690;SDS011;14307;51.718;8.938;2022-12-18T06:15:27;34.63;;;24.88;;
26690;SDS011;14307;51.718;8.938;2022-12-18T06:17:54;36.25;;;24.15;;
26690;SDS011;14307;51.718;8.938;2022-12-18T06:20:21;32.35;;;24.33;;
26690;SDS011;14307;51.718;8.938;2022-12-18T06:22:48;39.28;;;24.65;;
26690;SDS011;14307;51.718;8.938;2022-12-18T06:25:15;34.47;;;24.77;;
26690;SDS011;14307;51.718;8.938;2022-12-18T06:27:41;33.25;;;24.08;;
26690;SDS011;14307;51.718;8.938;2022-12-18T06:30:10;36.67;;;24.77;;
26690;SDS011;14307;51.718;8.938;2022-12-18T06:32:37;35.47;;;23.55;;
26690;SDS011;14307;51.718;8.938;2022-12-18T06:35:04;35.90;;;23.90;;
26690;SDS011;14307;51.718;8.938;2022-12-18T06:37:31;41.30;;;26.88;;
26690;SDS011;14307;51.718;8.938;2022-12-18T06:40:00;32.78;;;24.10;;
26690;SDS011;14307;51.718;8.938;2022-12-18T06:42:28;38.63;;;26.70;;
26690;SDS011;14307;51.718;8.938;2022-12-18T06:44:55;41.58;;;26.58;;
26690;SDS011;14307;51.718;8.938;2022-12-18T06:47:21;36.58;;;22.90;;
26690;SDS011;14307;51.718;8.938;2022-12-18T06:49:48;42.58;;;25.73;;
26690;SDS011;14307;51.718;8.938;2022-12-18T06:52:18;40.42;;;25.38;;
26690;SDS011;14307;51.718;8.938;2022-12-18T06:54:44;36.17;;;25.63;;
26690;SDS011;14307;51.718;8.938;2022-12-18T06:57:11;35.42;;;24.50;;
26690;SDS011;14307;51.718;8.938;2022-12-18T06:59:38;32.00;;;23.92;;
26690;SDS011;14307;51.718;8.938;2022-12-18T07:02:04;36.55;;;23.10;;
26690;SDS011;14307;51.718;8.938;2022-12-18T07:04:31;43.17;;;27.77;;
26690;SDS011;14307;51.718;8.938;2022-12-18T07:06:58;45.83;;;27.15;;
26690;SDS011;14307;51.718;8.938;2022-12-18T07:09:24;40.80;;;25.88;;
26690;SDS011;14307;51.718;8.938;2022-12-18T07:11:52;43.95;;;27.92;;
26690;SDS011;14307;51.718;8.938;2022-12-18T07:14:19;39.67;;;27.00;;
26690;SDS011;14307;51.718;8.938;2022-12-18T07:16:45;38.83;;;25.63;;
26690;SDS011;14307;51.718;8.938;2022-12-18T07:19:12;37.88;;;26.17;;
26690;SDS011;14307;51.718;8.938;2022-12-18T07:21:39;32.97;;;22.98;;
26690;SDS011;14307;51.718;8.938;2022-12-18T07:24:06;36.03;;;26.50;;
26690;SDS011;14307;51.718;8.938;2022-12-18T07:26:33;44.22;;;25.70;;
26690;SDS011;14307;51.718;8.938;2022-12-18T07:28:59;34.88;;;24.20;;
26690;SDS011;14307;51.718;8.938;2022-12-18T07:31:26;40.30;;;25.00;;
26690;SDS011;14307;51.718;8.938;2022-12-18T07:33:53;32.30;;;21.45;;
26690;SDS011;14307;51.718;8.938;2022-12-18T07:36:23;35.13;;;23.05;;
26690;SDS011;14307;51.718;8.938;2022-12-18T07:38:50;31.27;;;20.58;;
26690;SDS011;14307;51.718;8.938;2022-12-18T07:41:18;27.45;;;20.05;;
26690;SDS011;14307;51.718;8.938;2022-12-18T07:43:46;26.88;;;20.00;;
26690;SDS011;14307;51.718;8.938;2022-12-18T07:46:13;22.60;;;20.17;;
26690;SDS011;14307;51.718;8.938;2022-12-18T07:48:42;28.00;;;20.00;;
26690;SDS011;14307;51.718;8.938;2022-12-18T07:51:11;38.13;;;27.60;;
26690;SDS011;14307;51.718;8.938;2022-12-18T07:53:38;28.95;;;25.95;;
26690;SDS011;14307;51.718;8.938;2022-12-18T07:56:07;41.10;;;30.60;;
26690;SDS011;14307;51.718;8.938;2022-12-18T07:58:54;30.30;;;27.08;;
26690;SDS011;14307;51.718;8.938;2022-12-18T08:01:21;37.90;;;29.45;;
26690;SDS011;14307;51.718;8.938;2022-12-18T08:03:48;36.83;;;27.52;;
26690;SDS011;14307;51.718;8.938;2022-12-18T08:06:17;34.38;;;27.33;;
26690;SDS011;14307;51.718;8.938;2022-12-18T08:08:47;36.47;;;28.90;;
26690;SDS011;14307;51.718;8.938;2022-12-18T08:11:15;41.85;;;29.17;;
26690;SDS011;14307;51.718;8.938;2022-12-18T08:13:41;36.72;;;27.15;;
26690;SDS011;14307;51.718;8.938;2022-12-18T08:16:08;38.70;;;28.70;;
26690;SDS011;14307;51.718;8.938;2022-12-18T08:18:36;32.22;;;27.13;;
26690;SDS011;14307;51.718;8.938;2022-12-18T08:21:07;34.83;;;26.70;;
26690;SDS011;14307;51.718;8.938;2022-12-18T08:23:37;30.00;;;26.20;;
26690;SDS011;14307;51.718;8.938;2022-12-18T08:26:09;35.80;;;25.70;;
26690;SDS011;14307;51.718;8.938;2022-12-18T08:28:37;44.28;;;29.77;;
26690;SDS011;14307;51.718;8.938;2022-12-18T08:31:03;35.20;;;28.60;;
26690;SDS011;14307;51.718;8.938;2022-12-18T08:33:31;33.42;;;28.85;;
26690;SDS011;14307;51.718;8.938;2022-12-18T08:35:58;37.58;;;26.70;;
26690;SDS011;14307;51.718;8.938;2022-12-18T08:38:25;32.15;;;25.77;;
26690;SDS011;14307;51.718;8.938;2022-12-18T08:40:59;37.20;;;28.65;;
26690;SDS011;14307;51.718;8.938;2022-12-18T08:43:26;33.83;;;30.42;;
26690;SDS011;14307;51.718;8.938;2022-12-18T08:46:15;31.65;;;28.35;;
26690;SDS011;14307;51.718;8.938;2022-12-18T08:48:42;35.88;;;31.95;;
26690;SDS011;14307;51.718;8.938;2022-12-18T08:51:09;35.00;;;30.50;;
26690;SDS011;14307;51.718;8.938;2022-12-18T08:53:36;39.08;;;34.90;;
26690;SDS011;14307;51.718;8.938;2022-12-18T08:56:04;37.15;;;33.03;;
26690;SDS011;14307;51.718;8.938;2022-12-18T08:58:31;39.80;;;35.63;;
26690;SDS011;14307;51.718;8.938;2022-12-18T09:01:05;41.38;;;37.17;;
26690;SDS011;14307;51.718;8.938;2022-12-18T09:03:35;41.97;;;37.83;;
26690;SDS011;14307;51.718;8.938;2022-12-18T09:06:02;40.10;;;36.58;;
26690;SDS011;14307;51.718;8.938;2022-12-18T09:08:29;39.95;;;36.47;;
26690;SDS011;14307;51.718;8.938;2022-12-18T09:10:56;38.42;;;35.50;;
26690;SDS011;14307;51.718;8.938;2022-12-18T09:13:23;42.63;;;39.03;;
26690;SDS011;14307;51.718;8.938;2022-12-18T09:15:50;41.85;;;38.28;;
26690;SDS011;14307;51.718;8.938;2022-12-18T09:18:19;42.75;;;39.22;;
26690;SDS011;14307;51.718;8.938;2022-12-18T09:20:46;39.83;;;37.15;;
26690;SDS011;14307;51.718;8.938;2022-12-18T09:23:13;49.17;;;45.13;;
26690;SDS011;14307;51.718;8.938;2022-12-18T09:25:40;46.40;;;42.20;;
26690;SDS011;14307;51.718;8.938;2022-12-18T09:28:11;42.40;;;39.35;;
26690;SDS011;14307;51.718;8.938;2022-12-18T09:30:45;44.75;;;40.67;;
26690;SDS011;14307;51.718;8.938;2022-12-18T09:33:13;46.13;;;42.70;;
26690;SDS011;14307;51.718;8.938;2022-12-18T09:35:41;41.72;;;38.67;;
26690;SDS011;14307;51.718;8.938;2022-12-18T09:38:11;46.35;;;42.53;;
26690;SDS011;14307;51.718;8.938;2022-12-18T09:40:41;42.90;;;39.47;;
26690;SDS011;14307;51.718;8.938;2022-12-18T09:43:14;42.53;;;39.17;;
26690;SDS011;14307;51.718;8.938;2022-12-18T09:45:46;37.40;;;34.40;;
26690;SDS011;14307;51.718;8.938;2022-12-18T09:48:25;42.20;;;37.97;;
26690;SDS011;14307;51.718;8.938;2022-12-18T09:51:00;34.50;;;32.40;;
26690;SDS011;14307;51.718;8.938;2022-12-18T09:53:32;36.65;;;33.53;;
26690;SDS011;14307;51.718;8.938;2022-12-18T09:56:04;34.97;;;32.35;;
26690;SDS011;14307;51.718;8.938;2022-12-18T09:58:33;38.33;;;35.13;;
26690;SDS011;14307;51.718;8.938;2022-12-18T10:01:16;35.78;;;32.92;;
26690;SDS011;14307;51.718;8.938;2022-12-18T10:03:47;42.22;;;38.45;;
26690;SDS011;14307;51.718;8.938;2022-12-18T10:06:15;37.42;;;34.42;;
26690;SDS011;14307;51.718;8.938;2022-12-18T10:14:29;44.38;;;41.22;;
26690;SDS011;14307;51.718;8.938;2022-12-18T10:19:33;44.88;;;41.20;;
26690;SDS011;14307;51.718;8.938;2022-12-18T10:22:13;44.42;;;40.90;;
26690;SDS011;14307;51.718;8.938;2022-12-18T10:25:02;45.85;;;42.08;;
26690;SDS011;14307;51.718;8.938;2022-12-18T10:27:33;37.80;;;34.90;;
26690;SDS011;14307;51.718;8.938;2022-12-18T10:29:59;38.22;;;34.80;;
26690;SDS011;14307;51.718;8.938;2022-12-18T10:32:32;39.47;;;36.17;;
26690;SDS011;14307;51.718;8.938;2022-12-18T10:34:59;38.22;;;35.20;;
26690;SDS011;14307;51.718;8.938;2022-12-18T10:37:27;37.58;;;34.47;;
26690;SDS011;14307;51.718;8.938;2022-12-18T10:40:11;37.22;;;34.28;;
26690;SDS011;14307;51.718;8.938;2022-12-18T10:42:58;37.67;;;34.80;;
26690;SDS011;14307;51.718;8.938;2022-12-18T10:45:41;43.63;;;40.72;;
26690;SDS011;14307;51.718;8.938;2022-12-18T10:48:21;36.47;;;33.90;;
26690;SDS011;14307;51.718;8.938;2022-12-18T10:50:50;40.80;;;37.80;;
26690;SDS011;14307;51.718;8.938;2022-12-18T10:53:38;42.47;;;38.72;;
26690;SDS011;14307;51.718;8.938;2022-12-18T10:56:07;42.70;;;39.58;;
26690;SDS011;14307;51.718;8.938;2022-12-18T10:58:36;46.15;;;42.88;;
26690;SDS011;14307;51.718;8.938;2022-12-18T11:01:06;41.40;;;38.63;;
26690;SDS011;14307;51.718;8.938;2022-12-18T11:08:42;40.85;;;38.10;;
26690;SDS011;14307;51.718;8.938;2022-12-18T11:11:15;42.08;;;38.90;;
26690;SDS011;14307;51.718;8.938;2022-12-18T11:13:54;50.80;;;47.30;;
26690;SDS011;14307;51.718;8.938;2022-12-18T11:16:27;47.83;;;44.67;;
26690;SDS011;14307;51.718;8.938;2022-12-18T11:24:53;43.90;;;40.67;;
26690;SDS011;14307;51.718;8.938;2022-12-18T11:27:49;44.88;;;41.60;;
26690;SDS011;14307;51.718;8.938;2022-12-18T11:30:22;45.47;;;42.17;;
26690;SDS011;14307;51.718;8.938;2022-12-18T11:32:54;42.85;;;39.85;;
26690;SDS011;14307;51.718;8.938;2022-12-18T11:35:45;40.13;;;37.45;;
26690;SDS011;14307;51.718;8.938;2022-12-18T11:38:22;39.85;;;37.05;;
26690;SDS011;14307;51.718;8.938;2022-12-18T11:43:31;45.72;;;42.53;;
26690;SDS011;14307;51.718;8.938;2022-12-18T11:46:10;45.63;;;42.47;;
26690;SDS011;14307;51.718;8.938;2022-12-18T11:48:47;46.00;;;42.75;;
26690;SDS011;14307;51.718;8.938;2022-12-18T11:51:29;44.22;;;41.13;;
26690;SDS011;14307;51.718;8.938;2022-12-18T11:54:01;45.25;;;41.78;;
26690;SDS011;14307;51.718;8.938;2022-12-18T11:56:40;43.90;;;40.55;;
26690;SDS011;14307;51.718;8.938;2022-12-18T11:59:24;44.30;;;40.95;;
26690;SDS011;14307;51.718;8.938;2022-12-18T12:02:11;37.60;;;34.22;;
26690;SDS011;14307;51.718;8.938;2022-12-18T12:10:40;40.67;;;37.92;;
26690;SDS011;14307;51.718;8.938;2022-12-18T12:13:29;42.22;;;39.35;;
26690;SDS011;14307;51.718;8.938;2022-12-18T12:16:20;39.75;;;37.10;;
26690;SDS011;14307;51.718;8.938;2022-12-18T12:19:15;41.55;;;38.78;;
26690;SDS011;14307;51.718;8.938;2022-12-18T12:21:58;45.60;;;41.95;;
26690;SDS011;14307;51.718;8.938;2022-12-18T12:27:14;41.72;;;38.47;;
26690;SDS011;14307;51.718;8.938;2022-12-18T12:38:24;35.22;;;32.63;;
26690;SDS011;14307;51.718;8.938;2022-12-18T12:41:17;37.17;;;34.35;;
26690;SDS011;14307;51.718;8.938;2022-12-18T12:44:07;34.75;;;32.55;;
26690;SDS011;14307;51.718;8.938;2022-12-18T12:46:39;35.25;;;32.63;;
26690;SDS011;14307;51.718;8.938;2022-12-18T12:49:13;36.47;;;33.22;;
26690;SDS011;14307;51.718;8.938;2022-12-18T12:51:44;32.60;;;30.52;;
26690;SDS011;14307;51.718;8.938;2022-12-18T12:54:31;35.95;;;33.10;;
26690;SDS011;14307;51.718;8.938;2022-12-18T12:57:10;32.50;;;30.10;;
26690;SDS011;14307;51.718;8.938;2022-12-18T12:59:58;36.67;;;33.90;;
26690;SDS011;14307;51.718;8.938;2022-12-18T13:05:26;32.72;;;30.70;;
26690;SDS011;14307;51.718;8.938;2022-12-18T13:08:01;34.97;;;32.40;;
26690;SDS011;14307;51.718;8.938;2022-12-18T13:10:34;37.70;;;34.95;;
26690;SDS011;14307;51.718;8.938;2022-12-18T13:13:11;33.40;;;30.88;;
26690;SDS011;14307;51.718;8.938;2022-12-18T13:15:47;35.08;;;32.25;;
26690;SDS011;14307;51.718;8.938;2022-12-18T13:18:33;32.92;;;30.55;;
26690;SDS011;14307;51.718;8.938;2022-12-18T13:21:02;36.00;;;33.28;;
26690;SDS011;14307;51.718;8.938;2022-12-18T13:23:39;33.75;;;31.27;;
26690;SDS011;14307;51.718;8.938;2022-12-18T13:31:14;31.10;;;28.95;;
26690;SDS011;14307;51.718;8.938;2022-12-18T13:36:56;34.92;;;32.17;;
26690;SDS011;14307;51.718;8.938;2022-12-18T13:39:43;38.53;;;34.92;;
26690;SDS011;14307;51.718;8.938;2022-12-18T13:44:56;36.25;;;33.47;;
26690;SDS011;14307;51.718;8.938;2022-12-18T13:47:25;37.42;;;34.60;;
26690;SDS011;14307;51.718;8.938;2022-12-18T13:50:17;37.22;;;34.08;;
26690;SDS011;14307;51.718;8.938;2022-12-18T13:52:48;37.83;;;35.13;;
26690;SDS011;14307;51.718;8.938;2022-12-18T13:55:18;38.78;;;35.60;;
26690;SDS011;14307;51.718;8.938;2022-12-18T13:57:46;48.60;;;43.60;;
26690;SDS011;14307;51.718;8.938;2022-12-18T14:00:22;37.60;;;34.42;;
26690;SDS011;14307;51.718;8.938;2022-12-18T14:02:52;48.60;;;43.28;;
26690;SDS011;14307;51.718;8.938;2022-12-18T14:05:26;37.47;;;34.90;;
26690;SDS011;14307;51.718;8.938;2022-12-18T14:07:53;43.27;;;39.63;;
26690;SDS011;14307;51.718;8.938;2022-12-18T14:10:21;40.95;;;37.72;;
26690;SDS011;14307;51.718;8.938;2022-12-18T14:13:10;40.70;;;37.67;;
26690;SDS011;14307;51.718;8.938;2022-12-18T14:15:50;42.45;;;39.35;;
26690;SDS011;14307;51.718;8.938;2022-12-18T14:20:51;43.97;;;40.88;;
26690;SDS011;14307;51.718;8.938;2022-12-18T14:23:28;49.25;;;45.30;;
26690;SDS011;14307;51.718;8.938;2022-12-18T14:28:56;45.05;;;41.35;;
26690;SDS011;14307;51.718;8.938;2022-12-18T14:31:25;50.35;;;46.30;;
26690;SDS011;14307;51.718;8.938;2022-12-18T14:33:54;44.45;;;41.00;;
26690;SDS011;14307;51.718;8.938;2022-12-18T14:36:25;39.47;;;36.70;;
26690;SDS011;14307;51.718;8.938;2022-12-18T14:38:55;30.85;;;27.77;;
26690;SDS011;14307;51.718;8.938;2022-12-18T14:41:23;25.42;;;22.75;;
26690;SDS011;14307;51.718;8.938;2022-12-18T14:43:51;25.95;;;23.48;;
26690;SDS011;14307;51.718;8.938;2022-12-18T14:49:04;24.40;;;22.05;;
26690;SDS011;14307;51.718;8.938;2022-12-18T14:51:51;26.98;;;21.85;;
26690;SDS011;14307;51.718;8.938;2022-12-18T14:54:23;26.02;;;22.77;;
26690;SDS011;14307;51.718;8.938;2022-12-18T14:56:51;26.85;;;24.30;;
26690;SDS011;14307;51.718;8.938;2022-12-18T14:59:32;25.63;;;23.20;;
26690;SDS011;14307;51.718;8.938;2022-12-18T15:04:37;25.92;;;22.83;;
26690;SDS011;14307;51.718;8.938;2022-12-18T15:07:12;23.50;;;21.30;;
26690;SDS011;14307;51.718;8.938;2022-12-18T15:09:40;26.73;;;23.95;;
26690;SDS011;14307;51.718;8.938;2022-12-18T15:12:24;25.25;;;22.95;;
26690;SDS011;14307;51.718;8.938;2022-12-18T15:14:59;26.67;;;23.92;;
26690;SDS011;14307;51.718;8.938;2022-12-18T15:17:26;32.00;;;26.08;;
26690;SDS011;14307;51.718;8.938;2022-12-18T15:19:53;27.20;;;24.50;;
26690;SDS011;14307;51.718;8.938;2022-12-18T15:22:27;36.95;;;27.50;;
26690;SDS011;14307;51.718;8.938;2022-12-18T15:24:56;29.23;;;26.10;;
26690;SDS011;14307;51.718;8.938;2022-12-18T15:27:34;32.28;;;28.55;;
26690;SDS011;14307;51.718;8.938;2022-12-18T15:32:36;35.28;;;31.95;;
26690;SDS011;14307;51.718;8.938;2022-12-18T15:37:47;28.30;;;25.33;;
26690;SDS011;14307;51.718;8.938;2022-12-18T15:40:22;29.05;;;25.92;;
26690;SDS011;14307;51.718;8.938;2022-12-18T15:42:51;33.03;;;29.38;;
26690;SDS011;14307;51.718;8.938;2022-12-18T15:45:38;26.27;;;23.58;;
26690;SDS011;14307;51.718;8.938;2022-12-18T15:48:13;29.95;;;26.33;;
26690;SDS011;14307;51.718;8.938;2022-12-18T15:50:46;26.92;;;24.25;;
26690;SDS011;14307;51.718;8.938;2022-12-18T15:53:13;32.05;;;27.33;;
26690;SDS011;14307;51.718;8.938;2022-12-18T15:55:39;28.95;;;25.75;;
26690;SDS011;14307;51.718;8.938;2022-12-18T15:58:26;31.50;;;26.08;;
26690;SDS011;14307;51.718;8.938;2022-12-18T16:00:53;31.58;;;24.17;;
26690;SDS011;14307;51.718;8.938;2022-12-18T16:03:22;32.10;;;23.70;;
26690;SDS011;14307;51.718;8.938;2022-12-18T16:05:49;27.83;;;24.23;;
26690;SDS011;14307;51.718;8.938;2022-12-18T16:08:16;33.78;;;27.17;;
26690;SDS011;14307;51.718;8.938;2022-12-18T16:10:43;29.75;;;25.27;;
26690;SDS011;14307;51.718;8.938;2022-12-18T16:13:13;26.33;;;23.63;;
26690;SDS011;14307;51.718;8.938;2022-12-18T16:15:45;35.28;;;27.77;;
26690;SDS011;14307;51.718;8.938;2022-12-18T16:18:12;35.53;;;28.45;;